createdAt,value
2023-02-01T00:01:20.009Z,16.88
2023-02-01T00:03:47.988Z,17.29
2023-02-01T00:06:16.513Z,17.10
2023-02-01T00:08:44.480Z,17.26
2023-02-01T00:11:13.449Z,17.19
2023-02-01T00:13:45.822Z,16.95
2023-02-01T00:16:34.055Z,17.29
2023-02-01T00:19:08.170Z,17.11
2023-02-01T00:21:37.356Z,17.05
2023-02-01T00:24:07.355Z,17.23
2023-02-01T00:26:40.453Z,17.23
2023-02-01T00:29:12.786Z,17.14
2023-02-01T00:31:40.839Z,16.93
2023-02-01T00:34:10.013Z,16.99
2023-02-01T00:36:39.444Z,17.21
2023-02-01T00:39:07.685Z,17.24
2023-02-01T00:41:35.708Z,17.08
2023-02-01T00:44:04.817Z,17.20
2023-02-01T00:46:33.017Z,16.89
2023-02-01T00:49:00.787Z,16.88
2023-02-01T00:51:30.796Z,17.15
2023-02-01T00:53:59.562Z,16.74
2023-02-01T00:56:28.747Z,16.67
2023-02-01T00:58:57.467Z,16.90
2023-02-01T01:01:28.958Z,16.44
2023-02-01T01:03:59.408Z,17.01
2023-02-01T01:06:32.777Z,17.05
2023-02-01T01:09:04.214Z,17.01
2023-02-01T01:11:34.111Z,17.10
2023-02-01T01:14:02.308Z,16.83
2023-02-01T01:16:32.045Z,16.48
2023-02-01T01:19:00.989Z,17.04
2023-02-01T01:21:29.836Z,16.80
2023-02-01T01:23:59.242Z,16.77
2023-02-01T01:26:28.556Z,16.94
2023-02-01T01:29:00.371Z,16.88
2023-02-01T01:31:28.977Z,16.90
2023-02-01T01:33:59.629Z,16.98
2023-02-01T01:36:29.024Z,16.93
2023-02-01T01:38:56.933Z,16.68
2023-02-01T01:41:29.538Z,16.71
2023-02-01T01:44:06.689Z,16.91
2023-02-01T01:46:42.049Z,16.60
2023-02-01T01:49:17.452Z,16.48
2023-02-01T01:51:51.338Z,16.60
2023-02-01T01:54:32.688Z,16.56
2023-02-01T01:57:17.660Z,16.82
2023-02-01T01:59:50.243Z,16.28
2023-02-01T02:02:18.974Z,16.82
2023-02-01T02:04:48.318Z,16.78
2023-02-01T02:07:22.793Z,16.78
2023-02-01T02:10:00.205Z,16.25
2023-02-01T02:12:29.537Z,16.63
2023-02-01T02:14:57.693Z,16.67
2023-02-01T02:17:55.409Z,16.48
2023-02-01T02:20:52.513Z,16.51
2023-02-01T02:23:29.537Z,16.73
2023-02-01T02:26:24.691Z,16.75
2023-02-01T02:29:36.154Z,16.76
2023-02-01T02:32:16.108Z,16.57
2023-02-01T02:35:19.436Z,16.74
2023-02-01T02:37:56.298Z,16.75
2023-02-01T02:40:50.619Z,16.73
2023-02-01T02:43:42.462Z,16.69
2023-02-01T02:46:45.580Z,16.66
2023-02-01T02:49:44.251Z,16.68
2023-02-01T02:52:37.623Z,16.41
2023-02-01T02:55:09.709Z,16.58
2023-02-01T02:58:02.623Z,15.98
2023-02-01T03:00:52.453Z,16.54
2023-02-01T03:03:39.213Z,16.29
2023-02-01T03:06:17.139Z,16.40
2023-02-01T03:08:46.417Z,16.59
2023-02-01T03:11:16.372Z,16.58
2023-02-01T03:13:47.178Z,16.64
2023-02-01T03:16:30.012Z,16.58
2023-02-01T03:19:05.195Z,16.56
2023-02-01T03:21:39.628Z,16.36
2023-02-01T03:24:41.329Z,16.51
2023-02-01T03:27:37.357Z,16.42
2023-02-01T03:30:22.406Z,15.81
2023-02-01T03:33:03.295Z,16.22
2023-02-01T03:35:57.660Z,16.59
2023-02-01T03:39:01.527Z,16.51
2023-02-01T03:42:07.519Z,16.43
2023-02-01T03:44:35.298Z,16.42
2023-02-01T03:47:21.647Z,16.30
2023-02-01T03:50:05.467Z,16.17
2023-02-01T03:52:42.615Z,16.42
2023-02-01T03:55:13.979Z,16.42
2023-02-01T03:57:47.300Z,16.28
2023-02-01T04:00:24.259Z,16.48
2023-02-01T04:02:53.399Z,15.83
2023-02-01T04:05:22.135Z,16.53
2023-02-01T04:08:00.609Z,16.49
2023-02-01T04:10:28.922Z,16.54
2023-02-01T04:12:56.766Z,16.48
2023-02-01T04:15:24.844Z,16.40
2023-02-01T04:17:52.543Z,16.75
2023-02-01T04:20:20.801Z,16.56
2023-02-01T04:22:48.751Z,16.42
2023-02-01T04:25:18.465Z,16.34
2023-02-01T04:27:48.920Z,16.62
2023-02-01T04:30:17.156Z,16.74
2023-02-01T04:32:45.314Z,16.73
2023-02-01T04:35:13.106Z,16.74
2023-02-01T04:37:40.829Z,16.44
2023-02-01T04:40:09.549Z,16.72
2023-02-01T04:42:37.418Z,16.55
2023-02-01T04:45:05.884Z,16.27
2023-02-01T04:47:33.604Z,16.44
2023-02-01T04:50:01.295Z,16.80
2023-02-01T04:52:30.053Z,16.82
2023-02-01T04:55:00.275Z,16.88
2023-02-01T04:57:28.277Z,16.90
2023-02-01T04:59:56.433Z,16.92
2023-02-01T05:02:24.147Z,16.90
2023-02-01T05:04:52.110Z,16.60
2023-02-01T05:07:20.061Z,16.86
2023-02-01T05:09:47.907Z,16.68
2023-02-01T05:12:34.358Z,16.74
2023-02-01T05:15:02.447Z,16.44
2023-02-01T05:17:30.225Z,16.40
2023-02-01T05:19:58.180Z,16.51
2023-02-01T05:22:26.241Z,16.57
2023-02-01T05:24:54.029Z,16.91
2023-02-01T05:27:21.856Z,16.90
2023-02-01T05:29:49.741Z,16.89
2023-02-01T05:32:22.660Z,16.67
2023-02-01T05:34:51.571Z,16.91
2023-02-01T05:37:19.649Z,16.86
2023-02-01T05:39:47.772Z,16.23
2023-02-01T05:42:15.995Z,16.99
2023-02-01T05:44:43.877Z,16.97
2023-02-01T05:47:11.991Z,16.62
2023-02-01T05:49:39.722Z,16.80
2023-02-01T05:52:07.714Z,16.64
2023-02-01T05:54:36.872Z,16.93
2023-02-01T05:57:04.571Z,16.68
2023-02-01T05:59:32.507Z,16.67
2023-02-01T06:02:00.309Z,16.49
2023-02-01T06:04:28.138Z,16.63
2023-02-01T06:06:56.929Z,16.87
2023-02-01T06:09:24.802Z,17.04
2023-02-01T06:11:52.587Z,16.46
2023-02-01T06:14:20.464Z,16.45
2023-02-01T06:16:48.212Z,16.46
2023-02-01T06:19:16.152Z,16.50
2023-02-01T06:21:44.080Z,16.83
2023-02-01T06:24:11.927Z,16.71
2023-02-01T06:26:41.768Z,16.95
2023-02-01T06:29:13.041Z,16.17
2023-02-01T06:31:41.586Z,17.00
2023-02-01T06:34:09.507Z,16.65
2023-02-01T06:36:37.460Z,16.66
2023-02-01T06:39:05.385Z,16.12
2023-02-01T06:41:35.671Z,16.89
2023-02-01T06:44:03.747Z,16.68
2023-02-01T06:46:32.216Z,16.97
2023-02-01T06:49:00.399Z,16.98
2023-02-01T06:51:30.355Z,16.89
2023-02-01T06:53:58.649Z,16.75
2023-02-01T06:56:27.046Z,16.25
2023-02-01T06:58:55.392Z,16.58
2023-02-01T07:01:23.335Z,16.79
2023-02-01T07:03:52.277Z,16.71
2023-02-01T07:06:20.667Z,16.93
2023-02-01T07:08:48.981Z,16.18
2023-02-01T07:11:18.126Z,16.51
2023-02-01T07:13:46.571Z,16.90
2023-02-01T07:16:17.659Z,16.94
2023-02-01T07:18:46.628Z,16.87
2023-02-01T07:21:14.721Z,16.60
2023-02-01T07:23:42.725Z,16.96
2023-02-01T07:26:14.252Z,16.36
2023-02-01T07:28:42.665Z,16.41
2023-02-01T07:31:16.519Z,16.74
2023-02-01T07:33:46.852Z,16.59
2023-02-01T07:36:17.284Z,16.75
2023-02-01T07:38:45.782Z,16.42
2023-02-01T07:41:13.821Z,16.89
2023-02-01T07:43:43.100Z,16.80
2023-02-01T07:46:11.990Z,16.78
2023-02-01T07:48:40.074Z,16.78
2023-02-01T07:51:13.202Z,16.89
2023-02-01T07:53:41.695Z,16.45
2023-02-01T07:56:18.484Z,16.70
2023-02-01T07:58:50.980Z,16.79
2023-02-01T08:01:21.759Z,16.45
2023-02-01T08:03:51.476Z,16.05
2023-02-01T08:06:20.981Z,16.95
2023-02-01T08:08:50.279Z,16.96
2023-02-01T08:11:18.837Z,16.85
2023-02-01T08:13:46.735Z,16.51
2023-02-01T08:16:17.179Z,16.98
2023-02-01T08:18:46.090Z,16.90
2023-02-01T08:21:19.326Z,17.00
2023-02-01T08:23:47.751Z,16.99
2023-02-01T08:26:25.200Z,17.08
2023-02-01T08:28:58.429Z,16.89
2023-02-01T08:31:27.861Z,16.96
2023-02-01T08:33:58.581Z,17.04
2023-02-01T08:36:29.982Z,17.04
2023-02-01T08:38:58.757Z,17.06
2023-02-01T08:41:31.716Z,16.77
2023-02-01T08:43:59.675Z,16.69
2023-02-01T08:46:28.334Z,16.89
2023-02-01T08:48:56.605Z,17.11
2023-02-01T08:51:26.067Z,17.15
2023-02-01T08:53:53.873Z,17.15
2023-02-01T08:56:21.778Z,17.11
2023-02-01T08:58:49.976Z,17.08
2023-02-01T09:01:18.635Z,17.19
2023-02-01T09:03:47.208Z,17.11
2023-02-01T09:06:17.247Z,17.01
2023-02-01T09:08:45.595Z,17.20
2023-02-01T09:11:16.388Z,16.35
2023-02-01T09:13:44.398Z,17.04
2023-02-01T09:16:14.590Z,17.15
2023-02-01T09:18:55.324Z,16.98
2023-02-01T09:21:30.911Z,17.37
2023-02-01T09:23:59.008Z,17.41
2023-02-01T09:26:32.491Z,17.20
2023-02-01T09:29:01.712Z,17.47
2023-02-01T09:31:32.339Z,17.31
2023-02-01T09:34:02.053Z,17.42
2023-02-01T09:36:31.425Z,17.52
2023-02-01T09:39:00.302Z,16.97
2023-02-01T09:41:35.786Z,17.55
2023-02-01T09:44:22.303Z,17.57
2023-02-01T09:46:52.359Z,17.41
2023-02-01T09:49:26.755Z,17.05
2023-02-01T09:51:57.395Z,17.54
2023-02-01T09:54:28.937Z,17.44
2023-02-01T09:57:24.941Z,17.28
2023-02-01T10:00:02.040Z,17.05
2023-02-01T10:02:41.115Z,17.61
2023-02-01T10:05:18.740Z,17.18
2023-02-01T10:08:18.209Z,17.62
2023-02-01T10:10:49.522Z,17.10
2023-02-01T10:13:30.593Z,17.42
2023-02-01T10:16:34.816Z,17.66
2023-02-01T10:19:18.462Z,17.66
2023-02-01T10:22:03.799Z,17.61
2023-02-01T10:24:43.088Z,17.61
2023-02-01T10:27:24.021Z,17.61
2023-02-01T10:30:16.061Z,17.41
2023-02-01T10:32:44.573Z,16.94
2023-02-01T10:35:24.635Z,17.58
2023-02-01T10:37:53.453Z,17.50
2023-02-01T10:40:25.186Z,17.60
2023-02-01T10:42:58.057Z,17.59
2023-02-01T10:45:30.496Z,17.60
2023-02-01T10:48:00.815Z,17.63
2023-02-01T10:51:00.309Z,17.65
2023-02-01T10:53:38.459Z,17.67
2023-02-01T10:56:11.675Z,17.59
2023-02-01T10:58:48.544Z,17.43
2023-02-01T11:01:29.295Z,17.61
2023-02-01T11:04:01.359Z,17.47
2023-02-01T11:06:34.466Z,17.69
2023-02-01T11:09:23.227Z,17.58
2023-02-01T11:11:51.031Z,17.72
2023-02-01T11:14:33.377Z,17.25
2023-02-01T11:17:29.522Z,17.75
2023-02-01T11:19:59.695Z,17.77
2023-02-01T11:22:30.751Z,17.47
2023-02-01T11:25:01.486Z,17.79
2023-02-01T11:27:29.813Z,17.59
2023-02-01T11:30:02.722Z,17.83
2023-02-01T11:32:32.237Z,17.76
2023-02-01T11:35:07.233Z,17.90
2023-02-01T11:37:39.888Z,17.35
2023-02-01T11:40:39.882Z,17.82
2023-02-01T11:43:20.727Z,17.92
2023-02-01T11:46:17.087Z,17.84
2023-02-01T11:48:44.938Z,17.60
2023-02-01T11:51:12.731Z,17.95
2023-02-01T11:53:43.467Z,17.88
2023-02-01T11:56:17.892Z,17.97
2023-02-01T11:59:14.724Z,17.97
2023-02-01T12:02:12.681Z,18.00
2023-02-01T12:04:58.934Z,17.97
2023-02-01T12:07:41.399Z,18.01
2023-02-01T12:10:28.388Z,18.10
2023-02-01T12:13:16.556Z,17.57
2023-02-01T12:16:03.702Z,18.20
2023-02-01T12:18:50.010Z,18.20
2023-02-01T12:21:50.135Z,18.17
2023-02-01T12:24:41.406Z,18.17
2023-02-01T12:27:43.324Z,18.21
2023-02-01T12:30:14.249Z,18.18
2023-02-01T12:32:47.970Z,18.23
2023-02-01T12:35:28.777Z,18.23
2023-02-01T12:38:32.282Z,18.02
2023-02-01T12:41:20.019Z,18.00
2023-02-01T12:43:55.194Z,18.16
2023-02-01T12:46:45.246Z,17.82
2023-02-01T12:49:21.066Z,17.17
2023-02-01T12:51:51.266Z,18.08
2023-02-01T12:54:28.086Z,17.69
2023-02-01T12:57:06.623Z,17.71
2023-02-01T12:59:43.827Z,17.72
2023-02-01T13:02:34.455Z,18.10
2023-02-01T13:05:08.008Z,17.93
2023-02-01T13:08:11.163Z,18.16
2023-02-01T13:10:47.237Z,18.15
2023-02-01T13:13:33.427Z,18.17
2023-02-01T13:16:18.023Z,18.14
2023-02-01T13:18:52.120Z,18.14
2023-02-01T13:21:32.832Z,18.12
2023-02-01T13:24:00.940Z,17.82
2023-02-01T13:26:28.908Z,18.18
2023-02-01T13:29:05.601Z,18.16
2023-02-01T13:31:54.559Z,18.20
2023-02-01T13:34:41.203Z,18.24
2023-02-01T13:37:32.977Z,18.27
2023-02-01T13:40:26.772Z,18.28
2023-02-01T13:43:01.000Z,18.18
2023-02-01T13:45:36.276Z,18.15
2023-02-01T13:48:07.994Z,18.26
2023-02-01T13:50:42.123Z,18.25
2023-02-01T13:53:21.285Z,18.27
2023-02-01T13:55:59.993Z,18.30
2023-02-01T13:58:35.682Z,18.32
2023-02-01T14:01:22.137Z,18.35
2023-02-01T14:04:02.204Z,18.37
2023-02-01T14:06:35.132Z,18.40
2023-02-01T14:09:14.733Z,18.41
2023-02-01T14:11:52.047Z,17.78
2023-02-01T14:14:19.827Z,18.39
2023-02-01T14:16:53.721Z,18.41
2023-02-01T14:19:32.737Z,18.39
2023-02-01T14:22:21.755Z,18.33
2023-02-01T14:24:55.528Z,18.24
2023-02-01T14:27:27.790Z,18.46
2023-02-01T14:30:00.857Z,18.50
2023-02-01T14:32:37.766Z,18.50
2023-02-01T14:35:34.769Z,18.50
2023-02-01T14:38:05.449Z,18.50
2023-02-01T14:40:35.388Z,18.40
2023-02-01T14:43:03.573Z,18.40
2023-02-01T14:45:32.069Z,18.50
2023-02-01T14:48:11.211Z,18.49
2023-02-01T14:50:50.372Z,18.34
2023-02-01T14:53:21.507Z,18.22
2023-02-01T14:56:07.979Z,18.21
2023-02-01T14:58:35.678Z,18.56
2023-02-01T15:01:15.221Z,18.56
2023-02-01T15:03:51.814Z,18.56
2023-02-01T15:06:33.111Z,18.54
2023-02-01T15:09:07.648Z,18.53
2023-02-01T15:11:58.102Z,18.49
2023-02-01T15:14:28.697Z,17.95
2023-02-01T15:16:58.202Z,18.33
2023-02-01T15:19:28.998Z,18.27
2023-02-01T15:21:59.968Z,18.40
2023-02-01T15:24:30.793Z,17.94
2023-02-01T15:27:05.793Z,18.39
2023-02-01T15:29:34.578Z,18.27
2023-02-01T15:32:02.807Z,18.36
2023-02-01T15:34:52.527Z,18.35
2023-02-01T15:37:23.362Z,18.36
2023-02-01T15:40:13.080Z,18.38
2023-02-01T15:42:54.337Z,18.37
2023-02-01T15:45:27.019Z,18.37
2023-02-01T15:47:58.238Z,18.28
2023-02-01T15:50:31.671Z,17.94
2023-02-01T15:52:59.693Z,17.98
2023-02-01T15:55:35.514Z,18.50
2023-02-01T15:58:16.407Z,18.50
2023-02-01T16:00:59.306Z,18.52
2023-02-01T16:03:46.360Z,18.50
2023-02-01T16:06:31.386Z,18.33
2023-02-01T16:08:59.327Z,18.50
2023-02-01T16:11:41.163Z,18.50
2023-02-01T16:14:09.271Z,18.36
2023-02-01T16:16:37.109Z,18.26
2023-02-01T16:19:05.947Z,17.94
2023-02-01T16:21:34.020Z,18.27
2023-02-01T16:24:04.972Z,18.18
2023-02-01T16:26:35.340Z,18.57
2023-02-01T16:29:07.173Z,18.72
2023-02-01T16:31:40.943Z,18.55
2023-02-01T16:34:18.197Z,18.63
2023-02-01T16:36:53.451Z,18.73
2023-02-01T16:39:22.402Z,18.77
2023-02-01T16:41:50.614Z,18.68
2023-02-01T16:44:20.192Z,18.87
2023-02-01T16:46:49.817Z,18.54
2023-02-01T16:49:24.967Z,18.30
2023-02-01T16:51:58.919Z,18.76
2023-02-01T16:54:30.147Z,18.74
2023-02-01T16:56:57.983Z,18.49
2023-02-01T16:59:25.723Z,18.78
2023-02-01T17:01:53.681Z,18.79
2023-02-01T17:04:22.017Z,18.28
2023-02-01T17:06:50.102Z,18.63
2023-02-01T17:09:18.102Z,18.69
2023-02-01T17:11:45.904Z,18.75
2023-02-01T17:14:17.828Z,18.75
2023-02-01T17:16:48.324Z,17.99
2023-02-01T17:19:19.188Z,18.69
2023-02-01T17:21:53.261Z,18.42
2023-02-01T17:24:25.939Z,18.44
2023-02-01T17:26:55.730Z,18.70
2023-02-01T17:29:23.992Z,18.14
2023-02-01T17:31:55.281Z,18.71
2023-02-01T17:34:23.872Z,18.54
2023-02-01T17:36:51.743Z,18.66
2023-02-01T17:39:44.914Z,18.24
2023-02-01T17:42:14.041Z,18.69
2023-02-01T17:44:41.683Z,18.70
2023-02-01T17:47:10.601Z,18.66
2023-02-01T17:49:39.480Z,18.57
2023-02-01T17:52:09.512Z,18.40
2023-02-01T17:54:37.718Z,18.66
2023-02-01T17:57:13.243Z,18.09
2023-02-01T17:59:40.987Z,17.98
2023-02-01T18:02:27.969Z,18.46
2023-02-01T18:04:55.935Z,18.44
2023-02-01T18:07:23.989Z,18.60
2023-02-01T18:09:52.204Z,18.61
2023-02-01T18:12:23.768Z,18.62
2023-02-01T18:14:51.863Z,18.39
2023-02-01T18:17:20.709Z,18.26
2023-02-01T18:19:48.496Z,17.47
2023-02-01T18:22:19.323Z,18.23
2023-02-01T18:24:47.169Z,18.31
2023-02-01T18:27:15.134Z,18.57
2023-02-01T18:29:43.065Z,18.16
2023-02-01T18:32:11.819Z,18.61
2023-02-01T18:34:41.134Z,18.51
2023-02-01T18:37:09.156Z,18.70
2023-02-01T18:39:38.646Z,18.67
2023-02-01T18:42:06.325Z,18.63
2023-02-01T18:44:34.060Z,18.22
2023-02-01T18:47:02.653Z,18.56
2023-02-01T18:49:31.177Z,18.59
2023-02-01T18:52:00.427Z,18.79
2023-02-01T18:54:28.572Z,18.77
2023-02-01T18:56:57.364Z,18.38
2023-02-01T18:59:25.259Z,18.71
2023-02-01T19:01:54.750Z,18.89
2023-02-01T19:04:25.208Z,18.65
2023-02-01T19:06:55.149Z,18.85
2023-02-01T19:09:23.227Z,18.71
2023-02-01T19:11:51.153Z,18.99
2023-02-01T19:14:19.073Z,18.97
2023-02-01T19:16:46.818Z,19.10
2023-02-01T19:19:14.692Z,19.07
2023-02-01T19:21:42.793Z,18.81
2023-02-01T19:24:10.698Z,19.08
2023-02-01T19:26:41.928Z,18.48
2023-02-01T19:29:11.764Z,19.01
2023-02-01T19:31:39.966Z,19.20
2023-02-01T19:34:07.803Z,18.63
2023-02-01T19:36:41.556Z,18.97
2023-02-01T19:39:10.634Z,19.15
2023-02-01T19:41:38.485Z,18.88
2023-02-01T19:44:06.403Z,19.18
2023-02-01T19:46:36.160Z,19.23
2023-02-01T19:49:08.179Z,19.22
2023-02-01T19:51:41.243Z,19.00
2023-02-01T19:54:11.756Z,19.19
2023-02-01T19:56:46.940Z,19.13
2023-02-01T19:59:15.145Z,18.53
2023-02-01T20:01:44.440Z,19.34
2023-02-01T20:04:14.397Z,19.37
2023-02-01T20:06:49.207Z,19.35
2023-02-01T20:09:23.044Z,19.06
2023-02-01T20:11:54.348Z,18.19
2023-02-01T20:14:26.172Z,19.30
2023-02-01T20:16:53.962Z,18.80
2023-02-01T20:19:23.662Z,19.37
2023-02-01T20:21:51.845Z,19.40
2023-02-01T20:24:19.702Z,19.40
2023-02-01T20:26:51.927Z,19.00
2023-02-01T20:29:25.023Z,18.90
2023-02-01T20:31:56.776Z,19.28
2023-02-01T20:34:24.555Z,19.05
2023-02-01T20:36:53.465Z,19.25
2023-02-01T20:39:23.819Z,19.15
2023-02-01T20:41:51.895Z,19.31
2023-02-01T20:44:19.710Z,19.29
2023-02-01T20:46:48.029Z,18.54
2023-02-01T20:49:18.869Z,18.91
2023-02-01T20:51:46.929Z,19.11
2023-02-01T20:54:16.216Z,18.77
2023-02-01T20:56:45.488Z,19.05
2023-02-01T20:59:14.947Z,18.21
2023-02-01T21:01:52.007Z,18.72
2023-02-01T21:04:22.495Z,18.78
2023-02-01T21:06:50.533Z,18.97
2023-02-01T21:09:19.043Z,18.94
2023-02-01T21:11:51.941Z,18.91
2023-02-01T21:14:21.130Z,18.81
2023-02-01T21:16:50.089Z,18.83
2023-02-01T21:19:19.306Z,18.83
2023-02-01T21:21:47.768Z,18.83
2023-02-01T21:24:17.071Z,18.72
2023-02-01T21:26:45.993Z,18.82
2023-02-01T21:29:18.075Z,18.54
2023-02-01T21:31:46.108Z,18.26
2023-02-01T21:34:14.954Z,18.68
2023-02-01T21:36:45.046Z,18.70
2023-02-01T21:39:13.896Z,18.53
2023-02-01T21:42:00.209Z,18.65
2023-02-01T21:44:30.421Z,18.62
2023-02-01T21:46:58.397Z,18.34
2023-02-01T21:49:32.645Z,18.40
2023-02-01T21:52:01.137Z,18.04
2023-02-01T21:54:28.980Z,18.54
2023-02-01T21:56:56.889Z,18.56
2023-02-01T21:59:26.213Z,18.23
2023-02-01T22:01:55.097Z,18.48
2023-02-01T22:04:24.025Z,18.45
2023-02-01T22:06:51.917Z,18.28
2023-02-01T22:09:22.557Z,18.34
2023-02-01T22:11:53.699Z,18.23
2023-02-01T22:14:24.567Z,17.95
2023-02-01T22:16:56.761Z,18.27
2023-02-01T22:19:25.544Z,18.26
2023-02-01T22:21:53.385Z,18.60
2023-02-01T22:24:21.890Z,18.07
2023-02-01T22:26:51.320Z,18.64
2023-02-01T22:29:24.456Z,18.53
2023-02-01T22:31:54.003Z,18.69
2023-02-01T22:34:22.677Z,18.47
2023-02-01T22:36:51.745Z,18.50
2023-02-01T22:39:19.584Z,18.30
2023-02-01T22:41:47.362Z,18.41
2023-02-01T22:44:15.119Z,18.65
2023-02-01T22:46:42.902Z,18.52
2023-02-01T22:49:11.333Z,18.39
2023-02-01T22:51:40.360Z,17.91
2023-02-01T22:54:21.800Z,18.56
2023-02-01T22:56:51.485Z,18.09
2023-02-01T22:59:21.834Z,18.48
2023-02-01T23:01:49.639Z,18.00
2023-02-01T23:04:18.476Z,18.48
2023-02-01T23:06:46.214Z,18.49
2023-02-01T23:09:17.700Z,18.48
2023-02-01T23:11:45.727Z,17.71
2023-02-01T23:14:14.709Z,18.34
2023-02-01T23:16:47.531Z,18.39
2023-02-01T23:19:16.309Z,17.79
2023-02-01T23:21:44.364Z,18.14
2023-02-01T23:24:12.457Z,17.85
2023-02-01T23:26:41.240Z,17.48
2023-02-01T23:29:17.291Z,18.07
2023-02-01T23:31:45.692Z,18.29
2023-02-01T23:34:13.588Z,17.91
2023-02-01T23:36:41.447Z,18.12
2023-02-01T23:39:09.931Z,18.09
2023-02-01T23:41:38.842Z,17.90
2023-02-01T23:44:07.552Z,18.29
2023-02-01T23:46:44.741Z,18.26
2023-02-01T23:49:15.510Z,18.04
2023-02-01T23:51:43.532Z,18.04
2023-02-01T23:54:12.667Z,18.31
2023-02-01T23:56:43.510Z,18.11
2023-02-01T23:59:20.403Z,18.28
